Terminal Aerodrome Forecast
Issued by NWS

Home | Current Version | Previous Version | Graphics & Text | Print | Product List | Glossary On
Versions: 1 2 3 4 5 6 7 8 9 10 11 12
000
FTUS45 KGGW 211143
TAFGDV
TAF
KGDV 211143Z 2112/2212 10010KT P6SM BKN110
     FM211400 12014KT P6SM SCT100
     FM211800 14019G28KT P6SM SCT160
     FM220200 14023G34KT P6SM VCTS BKN210CB PROB30 2203/2205 6SM
      -TSRA OVC040CB
     FM220600 22012KT P6SM -SHRA OVC028
     FM220900 20006KT P6SM BKN040
      AMD LTD TO CLD VIS AND WIND=

USA.gov is the U.S. government's official web portal to all federal, state and local government web resources and services.